createdAt,value
2016-09-30T00:00:21.747Z,20.03
2016-09-30T00:01:22.110Z,20.05
2016-09-30T00:02:21.665Z,20.09
2016-09-30T00:03:21.632Z,20
2016-09-30T00:05:21.997Z,20.27
2016-09-30T00:06:21.956Z,20.23
2016-09-30T00:07:21.547Z,20.42
2016-09-30T00:08:21.580Z,20.39
2016-09-30T00:09:21.500Z,20.46
2016-09-30T00:10:21.859Z,20.51
2016-09-30T00:11:21.462Z,20.33
2016-09-30T00:12:21.785Z,20.15
2016-09-30T00:13:21.810Z,20.1
2016-09-30T00:15:21.358Z,20.1
2016-09-30T00:16:36.357Z,20.05
2016-09-30T00:17:21.326Z,20
2016-09-30T00:18:21.642Z,20.03
2016-09-30T00:19:21.223Z,20.08
2016-09-30T00:20:21.187Z,20.13
2016-09-30T00:21:21.174Z,20.28
2016-09-30T00:22:21.638Z,20.43
2016-09-30T00:23:36.107Z,20.28
2016-09-30T00:24:21.776Z,20.31
2016-09-30T00:25:21.464Z,20.42
2016-09-30T00:26:21.552Z,20.35
2016-09-30T00:27:21.018Z,20.56
2016-09-30T00:28:21.002Z,20.58
2016-09-30T00:29:21.640Z,20.58
2016-09-30T00:30:21.312Z,20.54
2016-09-30T00:31:21.295Z,20.42
2016-09-30T00:32:20.895Z,20.3
2016-09-30T00:33:21.331Z,20.35
2016-09-30T00:34:35.510Z,20.41
2016-09-30T00:35:20.794Z,20.49
2016-09-30T00:36:20.782Z,20.39
2016-09-30T00:37:20.851Z,20.56
2016-09-30T00:38:20.735Z,20.42
2016-09-30T00:39:20.806Z,20.35
2016-09-30T00:40:20.769Z,20.43
2016-09-30T00:41:35.331Z,20.43
2016-09-30T00:42:21.100Z,20.49
2016-09-30T00:43:20.695Z,20.54
2016-09-30T00:44:20.658Z,20.66
2016-09-30T00:45:20.618Z,20.77
2016-09-30T00:46:20.545Z,20.72
2016-09-30T00:47:20.540Z,20.53
2016-09-30T00:48:20.472Z,20.61
2016-09-30T00:49:20.465Z,20.41
2016-09-30T00:51:20.430Z,20.69
2016-09-30T00:52:20.777Z,20.84
2016-09-30T00:53:20.318Z,20.87
2016-09-30T00:54:20.309Z,20.9
2016-09-30T00:55:20.270Z,20.74
2016-09-30T00:56:20.685Z,20.91
2016-09-30T00:57:20.222Z,20.87
2016-09-30T00:58:20.182Z,20.86
2016-09-30T00:59:20.219Z,20.72
2016-09-30T01:00:20.177Z,20.68
2016-09-30T01:01:35.203Z,20.69
2016-09-30T01:02:20.085Z,20.68
2016-09-30T01:03:20.067Z,20.35
2016-09-30T01:04:20.413Z,20.28
2016-09-30T01:05:20.010Z,20.3
2016-09-30T01:06:20.079Z,20.42
2016-09-30T01:07:19.955Z,20.34
2016-09-30T01:08:20.398Z,20.49
2016-09-30T01:09:20.291Z,20.43
2016-09-30T01:10:19.881Z,20.25
2016-09-30T01:11:19.958Z,20.1
2016-09-30T01:12:26.503Z,20.21
2016-09-30T01:13:19.886Z,20.28
2016-09-30T01:15:20.132Z,20.49
2016-09-30T01:16:34.423Z,20.61
2016-09-30T01:17:19.722Z,20.71
2016-09-30T01:18:20.098Z,20.69
2016-09-30T01:19:19.749Z,20.72
2016-09-30T01:20:19.624Z,20.71
2016-09-30T01:21:20.003Z,20.76
2016-09-30T01:22:19.571Z,20.76
2016-09-30T01:24:19.886Z,20.69
2016-09-30T01:25:19.482Z,20.74
2016-09-30T01:26:19.455Z,20.69
2016-09-30T01:27:19.440Z,20.65
2016-09-30T01:28:19.783Z,20.65
2016-09-30T01:29:20.241Z,20.68
2016-09-30T01:30:19.348Z,20.39
2016-09-30T01:31:19.343Z,20.41
2016-09-30T01:32:19.368Z,20.27
2016-09-30T01:33:19.267Z,20.13
2016-09-30T01:34:19.269Z,20.03
2016-09-30T01:36:34.617Z,20.09
2016-09-30T01:37:19.194Z,20.28
2016-09-30T01:38:19.181Z,20.28
2016-09-30T01:39:19.099Z,20.25
2016-09-30T01:40:19.149Z,20.3
2016-09-30T01:41:19.053Z,20.28
2016-09-30T01:42:19.021Z,20.18
2016-09-30T01:43:19.430Z,20.03
2016-09-30T01:44:19.011Z,20.18
2016-09-30T01:45:18.947Z,19.91
2016-09-30T01:46:18.926Z,20.06
2016-09-30T01:47:18.933Z,20.05
2016-09-30T01:48:18.985Z,20.1
2016-09-30T01:49:18.846Z,20.28
2016-09-30T01:50:18.883Z,20.25
2016-09-30T01:51:18.877Z,20.2
2016-09-30T01:52:18.814Z,20.25
2016-09-30T01:53:18.785Z,20.28
2016-09-30T01:54:18.729Z,20.31
2016-09-30T01:55:19.089Z,20.25
2016-09-30T01:56:18.703Z,20.24
2016-09-30T01:57:18.631Z,20.27
2016-09-30T01:58:18.599Z,20.41
2016-09-30T01:59:18.597Z,20.25
2016-09-30T02:00:33.584Z,20
2016-09-30T02:01:18.904Z,20.16
2016-09-30T02:02:18.900Z,20.23
2016-09-30T02:03:23.903Z,20.15
2016-09-30T02:04:18.437Z,20.16
2016-09-30T02:05:18.799Z,20.18
2016-09-30T02:06:18.386Z,20.3
2016-09-30T02:07:18.765Z,20.21
2016-09-30T02:08:18.365Z,20.15
2016-09-30T02:09:18.322Z,20.12
2016-09-30T02:10:18.282Z,20.15
2016-09-30T02:11:18.292Z,20.02
2016-09-30T02:12:18.242Z,20.15
2016-09-30T02:13:18.264Z,20.15
2016-09-30T02:14:18.285Z,20.08
2016-09-30T02:15:18.560Z,20.12
2016-09-30T02:16:18.131Z,20.12
2016-09-30T02:17:18.099Z,20
2016-09-30T02:18:18.522Z,20.05
2016-09-30T02:19:18.257Z,19.79
2016-09-30T02:20:18.058Z,19.88
2016-09-30T02:21:18.014Z,19.93
2016-09-30T02:22:18.360Z,19.9
2016-09-30T02:24:18.336Z,19.84
2016-09-30T02:25:17.916Z,19.87
2016-09-30T02:26:17.881Z,19.88
2016-09-30T02:27:17.908Z,19.91
2016-09-30T02:28:18.211Z,20.02
2016-09-30T02:29:17.843Z,19.98
2016-09-30T02:30:17.779Z,20.06
2016-09-30T02:31:18.143Z,20.15
2016-09-30T02:32:17.775Z,20.1
2016-09-30T02:33:17.712Z,20.21
2016-09-30T02:34:17.666Z,20.28
2016-09-30T02:35:18.022Z,20.15
2016-09-30T02:37:18.068Z,20.35
2016-09-30T02:38:17.538Z,20.43
2016-09-30T02:39:17.523Z,20.38
2016-09-30T02:40:17.934Z,20.58
2016-09-30T02:41:17.863Z,20.56
2016-09-30T02:42:17.515Z,20.42
2016-09-30T02:43:18.196Z,20.51
2016-09-30T02:44:17.642Z,20.33
2016-09-30T02:45:32.099Z,20.38
2016-09-30T02:46:32.425Z,20.58
2016-09-30T02:47:17.338Z,20.56
2016-09-30T02:48:17.881Z,20.54
2016-09-30T02:49:31.936Z,20.56
2016-09-30T02:50:17.226Z,20.56
2016-09-30T02:51:17.674Z,20.34
2016-09-30T02:52:17.706Z,20.51
2016-09-30T02:53:17.150Z,20.53
2016-09-30T02:54:17.116Z,20.39
2016-09-30T02:55:17.505Z,20.34
2016-09-30T02:56:17.084Z,20.34
2016-09-30T02:57:17.770Z,20.42
2016-09-30T02:58:17.476Z,20.46
2016-09-30T02:59:17.053Z,20.61
2016-09-30T03:01:18.081Z,20.66
2016-09-30T03:02:16.941Z,20.56
2016-09-30T03:03:17.298Z,20.56
2016-09-30T03:04:31.536Z,20.53
2016-09-30T03:05:16.895Z,20.58
2016-09-30T03:06:31.946Z,20.56
2016-09-30T03:07:16.796Z,20.34
2016-09-30T03:08:17.053Z,20.24
2016-09-30T03:09:16.732Z,20.39
2016-09-30T03:10:16.800Z,20.28
2016-09-30T03:11:17.179Z,20.28
2016-09-30T03:12:16.714Z,20.24
2016-09-30T03:13:17.009Z,20.27
2016-09-30T03:14:17.037Z,20
2016-09-30T03:15:16.998Z,20.1
2016-09-30T03:16:17.150Z,20.02
2016-09-30T03:17:31.265Z,20
2016-09-30T03:18:17.013Z,19.9
2016-09-30T03:19:31.176Z,19.9
2016-09-30T03:20:17.072Z,19.9
2016-09-30T03:21:16.818Z,20.1
2016-09-30T03:22:16.400Z,20.09
2016-09-30T03:23:16.392Z,20.1
2016-09-30T03:24:16.324Z,20.33
2016-09-30T03:25:16.311Z,20.27
2016-09-30T03:26:16.293Z,20.1
2016-09-30T03:27:16.327Z,20.13
2016-09-30T03:28:30.934Z,20.2
2016-09-30T03:29:16.210Z,20.25
2016-09-30T03:30:16.233Z,20.05
2016-09-30T03:31:16.551Z,19.98
2016-09-30T03:33:16.476Z,20.05
2016-09-30T03:34:16.902Z,20
2016-09-30T03:35:16.220Z,20.13
2016-09-30T03:36:16.069Z,20.16
2016-09-30T03:37:16.014Z,20.15
2016-09-30T03:38:16.446Z,20.16
2016-09-30T03:39:16.444Z,20
2016-09-30T03:40:15.949Z,20.27
2016-09-30T03:41:15.900Z,20.25
2016-09-30T03:42:15.889Z,20.28
2016-09-30T03:43:15.836Z,20.5
2016-09-30T03:44:15.805Z,20.5
2016-09-30T03:45:15.990Z,20.25
2016-09-30T03:46:15.771Z,20.38
2016-09-30T03:47:15.946Z,20.33
2016-09-30T03:48:15.734Z,20.43
2016-09-30T03:49:15.716Z,20.28
2016-09-30T03:50:15.724Z,20.25
2016-09-30T03:51:15.646Z,20.34
2016-09-30T03:52:16.085Z,20.39
2016-09-30T03:53:15.974Z,20.41
2016-09-30T03:54:15.543Z,20.33
2016-09-30T03:55:15.582Z,20.28
2016-09-30T03:56:15.887Z,20.34
2016-09-30T03:57:15.472Z,20.27
2016-09-30T03:58:15.858Z,20.33
2016-09-30T03:59:15.495Z,20.31
2016-09-30T04:00:15.389Z,20.46
2016-09-30T04:01:15.819Z,20.5
2016-09-30T04:02:15.720Z,20.21
2016-09-30T04:03:15.417Z,20.12
2016-09-30T04:04:15.313Z,20.13
2016-09-30T04:05:29.993Z,20.05
2016-09-30T04:06:15.974Z,19.88
2016-09-30T04:07:15.201Z,20
2016-09-30T04:09:15.161Z,20.13
2016-09-30T04:10:15.153Z,19.95
2016-09-30T04:11:15.407Z,19.98
2016-09-30T04:12:15.059Z,20.09
2016-09-30T04:13:15.073Z,20.18
2016-09-30T04:14:15.076Z,20.1
2016-09-30T04:15:15.013Z,20.02
2016-09-30T04:16:14.967Z,20.05
2016-09-30T04:17:30.001Z,20.1
2016-09-30T04:18:15.303Z,20.02
2016-09-30T04:19:14.994Z,19.94
2016-09-30T04:20:14.857Z,20.03
2016-09-30T04:21:15.596Z,20.06
2016-09-30T04:22:14.909Z,20.2
2016-09-30T04:23:15.186Z,20.25
2016-09-30T04:24:14.958Z,20.2
2016-09-30T04:25:15.040Z,20.33
2016-09-30T04:26:29.821Z,20.42
2016-09-30T04:27:29.537Z,20.31
2016-09-30T04:28:29.710Z,20.18
2016-09-30T04:29:15.008Z,20.25
2016-09-30T04:30:14.620Z,20.1
2016-09-30T04:31:14.565Z,20.06
2016-09-30T04:32:14.570Z,19.87
2016-09-30T04:33:29.312Z,19.87
2016-09-30T04:34:14.482Z,19.91
2016-09-30T04:35:29.146Z,20.02
2016-09-30T04:36:14.551Z,20.08
2016-09-30T04:37:14.408Z,20.06
2016-09-30T04:39:14.372Z,20.05
2016-09-30T04:40:14.380Z,20.18
2016-09-30T04:41:14.974Z,20.12
2016-09-30T04:43:14.269Z,20.13
2016-09-30T04:44:14.608Z,20.13
2016-09-30T04:45:14.920Z,20.03
2016-09-30T04:46:14.151Z,20.02
2016-09-30T04:47:14.552Z,20.3
2016-09-30T04:48:14.239Z,20.33
2016-09-30T04:49:14.985Z,20.23
2016-09-30T04:51:14.051Z,20.13
2016-09-30T04:52:14.468Z,20.08
2016-09-30T04:53:14.002Z,20.03
2016-09-30T04:54:13.985Z,20.02
2016-09-30T04:55:14.030Z,20.02
2016-09-30T04:56:13.889Z,20.16
2016-09-30T04:58:14.268Z,20.31
2016-09-30T04:59:13.864Z,20.42
2016-09-30T05:00:13.830Z,20.3
2016-09-30T05:01:14.004Z,20.13
2016-09-30T05:02:13.747Z,20.09
2016-09-30T05:03:13.919Z,20
2016-09-30T05:04:13.702Z,20.15
2016-09-30T05:05:14.117Z,20.1
2016-09-30T05:06:13.707Z,20.15
2016-09-30T05:07:13.601Z,20.12
2016-09-30T05:09:13.700Z,20.39
2016-09-30T05:10:28.210Z,20.21
2016-09-30T05:11:14.662Z,20.25
2016-09-30T05:12:28.156Z,20.41
2016-09-30T05:13:13.459Z,20.34
2016-09-30T05:14:13.505Z,20.16
2016-09-30T05:15:13.936Z,20.12
2016-09-30T05:16:13.471Z,20.27
2016-09-30T05:17:14.058Z,20.31
2016-09-30T05:18:13.723Z,20.12
2016-09-30T05:19:13.319Z,20.1
2016-09-30T05:20:13.845Z,20.21
2016-09-30T05:21:13.718Z,20.33
2016-09-30T05:22:13.226Z,20.27
2016-09-30T05:24:13.590Z,20.41
2016-09-30T05:25:29.044Z,20.43
2016-09-30T05:26:13.270Z,20.33
2016-09-30T05:27:13.798Z,20.2
2016-09-30T05:28:13.074Z,20.15
2016-09-30T05:29:13.107Z,20.1
2016-09-30T05:30:13.777Z,20.15
2016-09-30T05:31:12.999Z,20.09
2016-09-30T05:33:12.951Z,19.98
2016-09-30T05:34:13.345Z,19.9
2016-09-30T05:35:13.670Z,19.98
2016-09-30T05:36:27.781Z,20.12
2016-09-30T05:37:12.940Z,20.3
2016-09-30T05:38:12.826Z,20.1
2016-09-30T05:39:12.788Z,20
2016-09-30T05:40:14.272Z,19.95
2016-09-30T05:41:27.789Z,20.05
2016-09-30T05:42:12.702Z,20.02
2016-09-30T05:43:27.341Z,19.9
2016-09-30T05:44:13.092Z,19.93
2016-09-30T05:45:12.689Z,20.13
2016-09-30T05:46:12.662Z,20.12
2016-09-30T05:47:12.618Z,20.13
2016-09-30T05:48:13.753Z,19.87
2016-09-30T05:49:12.976Z,20.06
2016-09-30T05:50:12.547Z,20.13
2016-09-30T05:51:27.715Z,20.02
2016-09-30T05:52:12.459Z,20.1
2016-09-30T05:53:12.498Z,20.09
2016-09-30T05:54:12.429Z,20.08
2016-09-30T05:55:12.451Z,20.25
2016-09-30T05:57:13.394Z,20
2016-09-30T05:58:12.289Z,19.97
2016-09-30T05:59:12.264Z,20.02
2016-09-30T06:00:27.650Z,19.98
2016-09-30T06:01:12.761Z,19.91
2016-09-30T06:02:12.402Z,19.98
2016-09-30T06:03:12.264Z,20.03
2016-09-30T06:04:12.450Z,20.05
2016-09-30T06:05:12.138Z,19.88
2016-09-30T06:06:12.072Z,19.86
2016-09-30T06:07:12.434Z,20.06
2016-09-30T06:08:12.028Z,20.2
2016-09-30T06:09:12.011Z,20.03
2016-09-30T06:10:11.947Z,20.06
2016-09-30T06:11:12.553Z,19.91
2016-09-30T06:12:12.277Z,19.87
2016-09-30T06:13:26.525Z,20.12
2016-09-30T06:14:26.660Z,20.15
2016-09-30T06:15:20.679Z,20.15
2016-09-30T06:16:12.537Z,20
2016-09-30T06:17:11.795Z,19.97
2016-09-30T06:18:12.242Z,19.94
2016-09-30T06:19:12.105Z,20.18
2016-09-30T06:20:12.114Z,20.16
2016-09-30T06:21:11.664Z,20.15
2016-09-30T06:22:12.479Z,20.21
2016-09-30T06:24:11.566Z,20.06
2016-09-30T06:25:11.620Z,20.12
2016-09-30T06:26:11.943Z,20.2
2016-09-30T06:27:11.541Z,20.24
2016-09-30T06:28:11.849Z,20.27
2016-09-30T06:29:26.191Z,20.1
2016-09-30T06:30:11.453Z,20
2016-09-30T06:31:26.047Z,20.16
2016-09-30T06:32:11.379Z,20.12
2016-09-30T06:33:17.676Z,20.1
2016-09-30T06:34:11.722Z,20.12
2016-09-30T06:35:25.961Z,20.3
2016-09-30T06:36:11.273Z,20.38
2016-09-30T06:37:25.902Z,20.31
2016-09-30T06:38:11.588Z,20.39
2016-09-30T06:39:11.614Z,20.47
2016-09-30T06:40:11.181Z,20.25
2016-09-30T06:41:11.425Z,20.2
2016-09-30T06:42:25.770Z,20.28
2016-09-30T06:43:11.481Z,20.33
2016-09-30T06:44:11.104Z,20.49
2016-09-30T06:45:11.044Z,20.39
2016-09-30T06:46:25.775Z,20.3
2016-09-30T06:47:11.013Z,20.28
2016-09-30T06:48:11.018Z,20.35
2016-09-30T06:49:25.940Z,20.46
2016-09-30T06:50:11.188Z,20.43
2016-09-30T06:51:11.167Z,20.33
2016-09-30T06:52:10.915Z,20.3
2016-09-30T06:53:11.110Z,20.25
2016-09-30T06:54:11.757Z,20.21
2016-09-30T06:55:11.185Z,20.2
2016-09-30T06:56:10.790Z,20.08
2016-09-30T06:57:11.281Z,19.93
2016-09-30T06:58:12.455Z,20.05
2016-09-30T06:59:10.713Z,20
2016-09-30T07:00:10.729Z,20.3
2016-09-30T07:01:10.939Z,20.35
2016-09-30T07:02:10.634Z,20.27
2016-09-30T07:03:10.702Z,20.23
2016-09-30T07:04:10.962Z,20.16
2016-09-30T07:05:11.116Z,19.94
2016-09-30T07:06:10.536Z,19.98
2016-09-30T07:07:10.938Z,20.03
2016-09-30T07:08:10.435Z,20.1
2016-09-30T07:09:10.498Z,20.3
2016-09-30T07:10:10.808Z,20.25
2016-09-30T07:12:10.303Z,20.21
2016-09-30T07:13:25.291Z,20.25
2016-09-30T07:14:10.702Z,20.39
2016-09-30T07:15:10.240Z,20.24
2016-09-30T07:16:10.196Z,20.3
2016-09-30T07:17:10.173Z,20.28
2016-09-30T07:18:10.208Z,20.25
2016-09-30T07:19:10.658Z,20.24
2016-09-30T07:20:10.191Z,20.39
2016-09-30T07:21:10.140Z,20.41
2016-09-30T07:22:10.166Z,20.33
2016-09-30T07:23:10.405Z,20.47
2016-09-30T07:24:09.975Z,20.31
2016-09-30T07:25:10.069Z,20.33
2016-09-30T07:26:10.076Z,20.1
2016-09-30T07:27:09.982Z,20.25
2016-09-30T07:28:09.866Z,20.35
2016-09-30T07:29:09.948Z,20.39
2016-09-30T07:30:09.846Z,20.47
2016-09-30T07:31:10.210Z,20.53
2016-09-30T07:32:10.233Z,20.56
2016-09-30T07:33:10.145Z,20.72
2016-09-30T07:34:25.131Z,20.54
2016-09-30T07:35:24.394Z,20.68
2016-09-30T07:36:10.465Z,20.54
2016-09-30T07:37:09.655Z,20.62
2016-09-30T07:38:10.058Z,20.68
2016-09-30T07:39:09.676Z,20.74
2016-09-30T07:41:10.140Z,20.76
2016-09-30T07:43:10.683Z,20.69
2016-09-30T07:44:09.734Z,20.69
2016-09-30T07:45:09.877Z,20.66
2016-09-30T07:46:09.999Z,20.64
2016-09-30T07:47:09.423Z,20.68
2016-09-30T07:48:10.179Z,20.69
2016-09-30T07:49:09.725Z,20.81
2016-09-30T07:50:09.722Z,20.96
2016-09-30T07:51:09.302Z,21.05
2016-09-30T07:52:09.410Z,21.02
2016-09-30T07:53:09.645Z,20.83
2016-09-30T07:54:09.583Z,20.9
2016-09-30T07:55:09.219Z,20.86
2016-09-30T07:56:09.165Z,20.87
2016-09-30T07:57:09.945Z,20.86
2016-09-30T07:58:23.822Z,20.72
2016-09-30T07:59:09.080Z,20.86
2016-09-30T08:00:24.406Z,20.95
2016-09-30T08:01:09.711Z,21.02
2016-09-30T08:02:15.288Z,20.87
2016-09-30T08:03:08.971Z,20.99
2016-09-30T08:04:09.297Z,20.95
2016-09-30T08:05:09.089Z,20.98
2016-09-30T08:06:09.014Z,20.99
2016-09-30T08:07:08.897Z,20.96
2016-09-30T08:08:09.201Z,20.99
2016-09-30T08:09:09.222Z,21.04
2016-09-30T08:10:09.308Z,20.95
2016-09-30T08:11:23.409Z,21.02
2016-09-30T08:12:08.828Z,21.08
2016-09-30T08:13:08.766Z,21.05
2016-09-30T08:14:09.139Z,20.96
2016-09-30T08:15:08.647Z,20.98
2016-09-30T08:16:08.587Z,20.95
2016-09-30T08:17:08.575Z,20.91
2016-09-30T08:18:08.581Z,21.04
2016-09-30T08:19:08.667Z,21.11
2016-09-30T08:20:08.664Z,21.01
2016-09-30T08:21:08.862Z,20.91
2016-09-30T08:22:09.439Z,20.87
2016-09-30T08:23:08.493Z,20.86
2016-09-30T08:24:08.486Z,20.93
2016-09-30T08:25:08.384Z,20.87
2016-09-30T08:26:23.095Z,20.96
2016-09-30T08:27:08.352Z,20.98
2016-09-30T08:28:23.381Z,21.02
2016-09-30T08:29:08.384Z,20.93
2016-09-30T08:31:08.309Z,20.95
2016-09-30T08:32:08.493Z,20.84
2016-09-30T08:33:08.254Z,20.95
2016-09-30T08:34:09.003Z,20.96
2016-09-30T08:35:24.917Z,20.9
2016-09-30T08:36:27.063Z,21.09
2016-09-30T08:37:08.306Z,21.08
2016-09-30T08:38:08.869Z,21.14
2016-09-30T08:39:08.063Z,20.99
2016-09-30T08:40:08.514Z,20.99
2016-09-30T08:41:08.537Z,20.99
2016-09-30T08:42:07.939Z,21.05
2016-09-30T08:43:08.437Z,21.04
2016-09-30T08:44:22.654Z,21.13
2016-09-30T08:45:07.829Z,21.19
2016-09-30T08:46:22.477Z,21.32
2016-09-30T08:47:08.283Z,21.34
2016-09-30T08:48:07.812Z,21.26
2016-09-30T08:49:07.749Z,21.13
2016-09-30T08:50:08.235Z,21.26
2016-09-30T08:51:08.182Z,21.27
2016-09-30T08:52:07.984Z,21.29
2016-09-30T08:53:07.726Z,21.35
2016-09-30T08:54:08.365Z,21.3
2016-09-30T08:55:08.059Z,21.46
2016-09-30T08:56:07.551Z,21.26
2016-09-30T08:57:07.975Z,21.23
2016-09-30T08:58:07.576Z,21.36
2016-09-30T08:59:08.081Z,21.53
2016-09-30T09:00:08.258Z,21.64
2016-09-30T09:01:07.450Z,21.51
2016-09-30T09:02:07.829Z,21.54
2016-09-30T09:04:36.705Z,21.56
2016-09-30T09:05:22.032Z,21.53
2016-09-30T09:06:08.593Z,21.41
2016-09-30T09:07:07.470Z,21.42
2016-09-30T09:08:07.234Z,21.56
2016-09-30T09:09:07.953Z,21.59
2016-09-30T09:12:07.145Z,21.51
2016-09-30T09:13:07.945Z,21.39
2016-09-30T09:14:21.831Z,21.48
2016-09-30T09:15:22.572Z,21.36
2016-09-30T09:16:07.081Z,21.34
2016-09-30T09:17:07.493Z,21.26
2016-09-30T09:18:06.981Z,21.39
2016-09-30T09:19:36.296Z,21.5
2016-09-30T09:21:07.071Z,21.56
2016-09-30T09:22:21.564Z,21.56
2016-09-30T09:23:07.200Z,21.64
2016-09-30T09:24:07.508Z,21.53
2016-09-30T09:25:07.360Z,21.41
2016-09-30T09:26:21.856Z,21.36
2016-09-30T09:27:21.805Z,21.41
2016-09-30T09:28:21.417Z,21.44
2016-09-30T09:29:22.484Z,21.32
2016-09-30T09:30:08.291Z,21.29
2016-09-30T09:31:07.077Z,21.34
2016-09-30T09:32:07.827Z,21.39
2016-09-30T09:33:07.562Z,21.27
2016-09-30T09:35:35.916Z,21.26
2016-09-30T09:36:21.160Z,21.44
2016-09-30T09:37:21.161Z,21.34
2016-09-30T09:38:21.532Z,21.38
2016-09-30T09:39:07.451Z,21.39
2016-09-30T09:40:06.868Z,21.53
2016-09-30T09:41:06.702Z,21.5
2016-09-30T09:42:06.367Z,21.44
2016-09-30T09:43:06.352Z,21.41
2016-09-30T09:44:06.792Z,21.29
2016-09-30T09:45:21.348Z,21.24
2016-09-30T09:46:06.554Z,21.09
2016-09-30T09:47:20.943Z,21.24
2016-09-30T09:48:06.258Z,21.24
2016-09-30T09:49:06.212Z,21.32
2016-09-30T09:50:07.019Z,21.5
2016-09-30T09:51:27.544Z,21.69
2016-09-30T09:52:20.905Z,21.56
2016-09-30T09:53:20.834Z,21.53
2016-09-30T09:55:06.804Z,21.45
2016-09-30T09:56:21.070Z,21.59
2016-09-30T09:57:07.217Z,21.64
2016-09-30T10:02:05.931Z,21.97
2016-09-30T10:03:37.950Z,22.01
2016-09-30T10:04:07.159Z,22.02
2016-09-30T10:05:05.942Z,22.1
2016-09-30T10:06:05.847Z,22.06
2016-09-30T10:07:20.391Z,22.06
2016-09-30T10:08:05.831Z,21.95
2016-09-30T10:10:06.375Z,21.92
2016-09-30T10:11:05.678Z,21.97
2016-09-30T10:12:06.176Z,21.79
2016-09-30T10:13:05.664Z,21.85
2016-09-30T10:14:05.992Z,21.88
2016-09-30T10:15:06.378Z,21.98
2016-09-30T10:16:20.535Z,21.85
2016-09-30T10:17:06.443Z,22.02
2016-09-30T10:18:20.570Z,21.95
2016-09-30T10:19:05.651Z,21.83
2016-09-30T10:20:05.810Z,21.88
2016-09-30T10:21:05.424Z,21.94
2016-09-30T10:22:05.371Z,21.94
2016-09-30T10:23:05.474Z,21.83
2016-09-30T10:24:06.077Z,21.83
2016-09-30T10:25:11.565Z,21.69
2016-09-30T10:26:06.245Z,21.83
2016-09-30T10:28:20.594Z,21.69
2016-09-30T10:29:34.571Z,21.81
2016-09-30T10:30:06.483Z,21.83
2016-09-30T10:31:06.879Z,21.85
2016-09-30T10:32:05.985Z,21.92
2016-09-30T10:33:05.281Z,21.97
2016-09-30T10:34:05.057Z,21.97
2016-09-30T10:35:05.514Z,22.02
2016-09-30T10:36:06.554Z,22.06
2016-09-30T10:38:34.222Z,22.31
2016-09-30T10:39:06.042Z,22.32
2016-09-30T10:40:19.602Z,22.14
2016-09-30T10:41:06.059Z,22.31
2016-09-30T10:42:05.082Z,22.35
2016-09-30T10:43:04.955Z,22.31
2016-09-30T10:45:19.819Z,22.5
2016-09-30T10:46:05.886Z,22.39
2016-09-30T10:47:05.850Z,22.29
2016-09-30T10:48:06.176Z,22.17
2016-09-30T10:49:05.960Z,22.14
2016-09-30T10:50:05.245Z,22.12
2016-09-30T10:51:20.485Z,22.2
2016-09-30T10:52:19.254Z,22.1
2016-09-30T10:53:11.088Z,22.23
2016-09-30T10:54:05.505Z,22.34
2016-09-30T10:55:33.922Z,22.23
2016-09-30T10:56:05.600Z,22.25
2016-09-30T10:57:04.375Z,22.14
2016-09-30T10:58:04.450Z,22.07
2016-09-30T10:59:05.157Z,22.07
2016-09-30T11:00:04.308Z,22.01
2016-09-30T11:01:05.548Z,22.09
2016-09-30T11:02:04.326Z,21.99
2016-09-30T11:03:05.895Z,22.02
2016-09-30T11:05:06.646Z,22.01
2016-09-30T11:06:06.177Z,21.97
2016-09-30T11:07:05.627Z,22.01
2016-09-30T11:08:05.762Z,22.1
2016-09-30T11:09:05.812Z,22.12
2016-09-30T11:10:05.525Z,22.34
2016-09-30T11:11:04.432Z,22.38
2016-09-30T11:12:04.399Z,22.14
2016-09-30T11:13:05.389Z,22.13
2016-09-30T11:14:04.581Z,22.17
2016-09-30T11:16:04.023Z,21.99
2016-09-30T11:17:18.552Z,22.06
2016-09-30T11:18:04.376Z,22.13
2016-09-30T11:19:03.882Z,22.14
2016-09-30T11:20:04.330Z,22.09
2016-09-30T11:21:03.988Z,22.13
2016-09-30T11:22:03.817Z,22.19
2016-09-30T11:23:04.160Z,22.13
2016-09-30T11:24:04.426Z,21.98
2016-09-30T11:25:03.758Z,22.04
2016-09-30T11:26:03.771Z,22.13
2016-09-30T11:27:03.755Z,22.14
2016-09-30T11:28:18.738Z,22.12
2016-09-30T11:29:18.300Z,22.27
2016-09-30T11:30:04.506Z,22.25
2016-09-30T11:31:03.609Z,22.17
2016-09-30T11:32:03.998Z,22.23
2016-09-30T11:33:03.859Z,22.31
2016-09-30T11:35:03.591Z,22.38
2016-09-30T11:36:03.647Z,22.37
2016-09-30T11:37:03.372Z,22.41
2016-09-30T11:38:03.770Z,22.29
2016-09-30T11:39:32.988Z,22.29
2016-09-30T11:40:32.647Z,22.34
2016-09-30T11:41:18.106Z,22.35
2016-09-30T11:43:17.880Z,22.39
2016-09-30T11:45:18.354Z,22.54
2016-09-30T11:46:03.519Z,22.47
2016-09-30T11:47:32.633Z,22.53
2016-09-30T11:48:32.423Z,22.49
2016-09-30T11:49:32.404Z,22.53
2016-09-30T11:50:03.110Z,22.46
2016-09-30T11:51:17.687Z,22.43
2016-09-30T11:52:18.276Z,22.37
2016-09-30T11:54:17.875Z,22.68
2016-09-30T11:55:03.643Z,22.82
2016-09-30T11:57:04.587Z,22.78
2016-09-30T11:59:03.956Z,22.92
